createdAt,value
2022-10-13T00:02:06.833Z,25.67
2022-10-13T00:05:13.593Z,24.53
2022-10-13T00:08:26.230Z,30.10
2022-10-13T00:11:33.333Z,21.37
2022-10-13T00:14:39.778Z,21.77
2022-10-13T00:17:48.619Z,23.30
2022-10-13T00:20:55.081Z,20.57
2022-10-13T00:24:00.868Z,22.40
2022-10-13T00:27:08.392Z,20.83
2022-10-13T00:30:14.691Z,23.67
2022-10-13T00:33:23.890Z,21.83
2022-10-13T00:36:29.495Z,20.87
2022-10-13T00:39:36.104Z,22.43
2022-10-13T00:42:44.606Z,21.67
2022-10-13T00:45:54.138Z,19.67
2022-10-13T00:49:06.659Z,20.47
2022-10-13T00:52:13.162Z,18.50
2022-10-13T00:55:24.381Z,20.17
2022-10-13T00:58:33.870Z,22.63
2022-10-13T01:01:39.527Z,19.33
2022-10-13T01:04:50.845Z,22.83
2022-10-13T01:07:57.836Z,22.53
2022-10-13T01:11:19.368Z,18.90
2022-10-13T01:14:33.129Z,18.57
2022-10-13T01:17:48.239Z,23.83
2022-10-13T01:21:10.186Z,21.57
2022-10-13T01:24:46.739Z,24.67
2022-10-13T01:28:11.839Z,24.23
2022-10-13T01:31:27.089Z,22.77
2022-10-13T01:34:38.225Z,25.43
2022-10-13T01:37:51.923Z,23.90
2022-10-13T01:41:06.871Z,23.47
2022-10-13T01:44:18.394Z,25.90
2022-10-13T01:47:37.399Z,20.20
2022-10-13T01:50:44.735Z,25.97
2022-10-13T01:53:51.824Z,26.03
2022-10-13T01:56:59.546Z,23.13
2022-10-13T02:00:11.143Z,23.83
2022-10-13T02:03:29.165Z,24.70
2022-10-13T02:06:39.917Z,27.47
2022-10-13T02:09:52.803Z,28.80
2022-10-13T02:13:03.583Z,25.67
2022-10-13T02:16:10.931Z,21.50
2022-10-13T02:19:21.444Z,29.63
2022-10-13T02:22:34.634Z,23.13
2022-10-13T02:25:43.478Z,28.00
2022-10-13T02:28:50.181Z,26.63
2022-10-13T02:31:56.735Z,26.00
2022-10-13T02:35:06.349Z,26.13
2022-10-13T02:38:12.021Z,29.87
2022-10-13T02:41:18.486Z,24.43
2022-10-13T02:44:25.061Z,27.67
2022-10-13T02:47:31.924Z,28.00
2022-10-13T02:50:42.422Z,24.33
2022-10-13T02:53:49.125Z,22.17
2022-10-13T02:56:54.710Z,24.60
2022-10-13T03:00:01.159Z,27.33
2022-10-13T03:03:07.909Z,29.13
2022-10-13T03:06:17.596Z,26.50
2022-10-13T03:09:23.216Z,28.53
2022-10-13T03:12:29.963Z,36.53
2022-10-13T03:15:35.570Z,33.20
2022-10-13T03:18:45.877Z,33.17
2022-10-13T03:21:54.540Z,35.07
2022-10-13T03:25:01.016Z,23.20
2022-10-13T03:28:07.873Z,26.57
2022-10-13T03:31:16.272Z,21.80
2022-10-13T03:34:22.349Z,24.20
2022-10-13T03:37:32.370Z,21.37
2022-10-13T03:40:39.322Z,21.80
2022-10-13T03:43:47.187Z,21.13
2022-10-13T03:46:53.092Z,19.73
2022-10-13T03:50:00.166Z,19.43
2022-10-13T03:53:10.393Z,20.20
2022-10-13T03:56:19.994Z,22.00
2022-10-13T03:59:36.421Z,20.70
2022-10-13T04:02:43.553Z,21.37
2022-10-13T04:05:49.450Z,19.23
2022-10-13T04:08:59.592Z,15.93
2022-10-13T04:12:07.104Z,22.80
2022-10-13T04:15:14.186Z,24.50
2022-10-13T04:18:19.792Z,20.13
2022-10-13T04:21:27.125Z,22.07
2022-10-13T04:24:35.536Z,23.77
2022-10-13T04:27:42.277Z,25.07
2022-10-13T04:30:49.599Z,29.33
2022-10-13T04:33:56.530Z,26.20
2022-10-13T04:37:03.682Z,23.23
2022-10-13T04:40:13.726Z,27.03
2022-10-13T04:43:19.567Z,22.30
2022-10-13T04:46:28.485Z,25.03
2022-10-13T04:49:35.161Z,31.80
2022-10-13T04:52:41.671Z,25.73
2022-10-13T04:55:50.164Z,27.03
2022-10-13T04:58:56.985Z,28.87
2022-10-13T05:02:03.880Z,29.40
2022-10-13T05:05:11.742Z,25.63
2022-10-13T05:08:17.410Z,27.90
2022-10-13T05:11:28.529Z,23.93
2022-10-13T05:14:35.535Z,24.40
2022-10-13T05:17:44.388Z,24.17
2022-10-13T05:20:50.106Z,18.50
2022-10-13T05:23:57.789Z,20.50
2022-10-13T05:27:07.089Z,20.67
2022-10-13T05:30:14.856Z,20.73
2022-10-13T05:33:20.473Z,19.50
2022-10-13T05:36:30.313Z,21.27
2022-10-13T05:39:36.068Z,18.93
2022-10-13T05:42:45.674Z,23.80
2022-10-13T05:45:52.105Z,22.67
2022-10-13T05:49:01.094Z,21.17
2022-10-13T05:52:11.695Z,18.57
2022-10-13T05:55:20.953Z,20.40
2022-10-13T05:58:29.403Z,21.23
2022-10-13T06:01:38.804Z,15.53
2022-10-13T06:04:47.938Z,19.10
2022-10-13T06:07:55.206Z,16.93
2022-10-13T06:11:01.287Z,18.03
2022-10-13T06:14:12.199Z,18.50
2022-10-13T06:17:17.827Z,20.10
2022-10-13T06:20:24.577Z,22.67
2022-10-13T06:23:30.233Z,20.03
2022-10-13T06:26:36.718Z,24.47
2022-10-13T06:29:45.084Z,20.77
2022-10-13T06:32:51.611Z,21.13
2022-10-13T06:35:57.284Z,22.23
2022-10-13T06:39:04.191Z,20.23
2022-10-13T06:42:09.791Z,21.03
2022-10-13T06:45:26.138Z,21.97
2022-10-13T06:48:33.115Z,22.67
2022-10-13T06:51:39.796Z,19.97
2022-10-13T06:54:45.599Z,20.07
2022-10-13T06:57:52.134Z,21.40
2022-10-13T07:01:01.072Z,19.57
2022-10-13T07:04:09.448Z,24.60
2022-10-13T07:07:15.268Z,18.90
2022-10-13T07:10:22.066Z,19.73
2022-10-13T07:13:30.444Z,21.53
2022-10-13T07:16:42.247Z,17.97
2022-10-13T07:19:48.880Z,17.10
2022-10-13T07:22:57.210Z,18.73
2022-10-13T07:26:04.954Z,17.77
2022-10-13T07:29:12.029Z,18.80
2022-10-13T07:32:20.642Z,17.37
2022-10-13T07:35:30.745Z,15.37
2022-10-13T07:38:36.781Z,14.73
2022-10-13T07:41:46.417Z,12.40
2022-10-13T07:44:55.769Z,14.67
2022-10-13T07:48:06.359Z,13.47
2022-10-13T07:51:14.094Z,15.07
2022-10-13T07:54:23.791Z,15.53
2022-10-13T07:57:32.910Z,14.07
2022-10-13T08:00:39.400Z,13.30
2022-10-13T08:03:50.333Z,11.47
2022-10-13T08:06:58.528Z,12.00
2022-10-13T08:10:04.215Z,12.53
2022-10-13T08:13:10.845Z,11.30
2022-10-13T08:16:16.726Z,11.93
2022-10-13T08:19:26.781Z,14.33
2022-10-13T08:22:34.428Z,12.10
2022-10-13T08:25:41.916Z,11.17
2022-10-13T08:29:02.933Z,11.37
2022-10-13T08:32:09.794Z,9.17
2022-10-13T08:35:18.252Z,8.33
2022-10-13T08:38:24.775Z,10.43
2022-10-13T08:41:34.135Z,10.63
2022-10-13T08:48:17.362Z,9.20
2022-10-13T08:51:26.834Z,11.10
2022-10-13T08:54:32.575Z,12.70
2022-10-13T08:57:39.098Z,10.23
2022-10-13T09:00:45.308Z,9.23
2022-10-13T09:03:54.537Z,8.83
2022-10-13T09:07:09.530Z,8.53
2022-10-13T09:10:16.978Z,8.57
2022-10-13T09:13:30.407Z,10.93
2022-10-13T09:16:40.528Z,9.20
2022-10-13T09:19:59.972Z,12.20
2022-10-13T09:23:21.561Z,9.97
2022-10-13T09:26:28.171Z,9.23
2022-10-13T09:29:34.898Z,11.73
2022-10-13T09:32:40.956Z,9.27
2022-10-13T09:35:49.657Z,9.73
2022-10-13T09:39:20.247Z,11.53
2022-10-13T09:42:30.280Z,10.77
2022-10-13T09:45:45.747Z,9.03
2022-10-13T09:48:54.366Z,9.03
2022-10-13T09:52:06.604Z,10.40
2022-10-13T09:55:35.294Z,11.57
2022-10-13T09:58:47.689Z,8.93
2022-10-13T10:01:58.786Z,13.00
2022-10-13T10:05:14.277Z,5.83
2022-10-13T10:08:33.376Z,6.20
2022-10-13T10:11:46.395Z,7.50
2022-10-13T10:14:53.179Z,7.10
2022-10-13T10:18:04.290Z,6.13
2022-10-13T10:21:15.567Z,7.70
2022-10-13T10:24:28.934Z,8.70
2022-10-13T10:27:44.109Z,5.57
2022-10-13T10:30:58.412Z,7.90
2022-10-13T10:34:23.221Z,7.50
2022-10-13T10:37:47.686Z,7.10
2022-10-13T10:41:04.332Z,5.30
2022-10-13T10:44:18.054Z,9.30
2022-10-13T10:47:29.157Z,6.33
2022-10-13T10:50:37.903Z,6.83
2022-10-13T10:53:58.706Z,6.00
2022-10-13T10:57:12.285Z,6.83
2022-10-13T11:00:24.096Z,7.20
2022-10-13T11:03:40.775Z,5.00
2022-10-13T11:06:47.694Z,5.20
2022-10-13T11:10:21.622Z,5.50
2022-10-13T11:13:29.301Z,4.57
2022-10-13T11:16:42.254Z,6.43
2022-10-13T11:19:52.639Z,5.67
2022-10-13T11:23:35.089Z,5.70
2022-10-13T11:26:46.513Z,4.27
2022-10-13T11:29:59.403Z,4.33
2022-10-13T11:33:37.752Z,5.50
2022-10-13T11:36:58.313Z,4.17
2022-10-13T11:40:19.426Z,4.00
2022-10-13T11:43:37.475Z,4.63
2022-10-13T11:47:04.275Z,4.77
2022-10-13T11:50:21.917Z,4.03
2022-10-13T11:53:31.016Z,2.97
2022-10-13T11:56:39.752Z,5.47
2022-10-13T11:59:51.617Z,3.93
2022-10-13T12:03:06.296Z,3.20
2022-10-13T12:06:33.431Z,2.97
2022-10-13T12:09:45.117Z,3.97
2022-10-13T12:12:52.826Z,4.23
2022-10-13T12:16:05.366Z,6.10
2022-10-13T12:19:12.828Z,6.73
2022-10-13T12:22:21.449Z,5.27
2022-10-13T12:25:31.322Z,5.57
2022-10-13T12:28:51.541Z,5.17
2022-10-13T12:31:58.814Z,4.73
2022-10-13T12:35:18.983Z,7.37
2022-10-13T12:38:28.472Z,6.07
2022-10-13T12:41:36.506Z,5.43
2022-10-13T12:44:43.990Z,4.73
2022-10-13T12:47:52.042Z,4.93
2022-10-13T12:50:58.586Z,5.53
2022-10-13T12:54:10.466Z,5.50
2022-10-13T12:57:21.312Z,7.43
2022-10-13T13:00:29.944Z,5.57
2022-10-13T13:03:38.999Z,5.27
2022-10-13T13:06:56.604Z,8.93
2022-10-13T13:10:17.927Z,7.23
2022-10-13T13:13:26.312Z,8.67
2022-10-13T13:16:33.156Z,7.83
2022-10-13T13:19:39.543Z,7.53
2022-10-13T13:22:48.428Z,8.60
2022-10-13T13:26:08.145Z,7.90
2022-10-13T13:29:14.596Z,7.43
2022-10-13T13:32:25.552Z,6.43
2022-10-13T13:35:32.094Z,6.70
2022-10-13T13:38:37.801Z,6.03
2022-10-13T13:41:48.069Z,8.03
2022-10-13T13:44:53.868Z,8.53
2022-10-13T13:48:01.013Z,11.27
2022-10-13T13:51:07.487Z,8.43
2022-10-13T13:54:13.976Z,8.03
2022-10-13T13:57:23.223Z,8.10
2022-10-13T14:00:29.841Z,7.37
2022-10-13T14:03:35.834Z,8.67
2022-10-13T14:06:44.878Z,7.27
2022-10-13T14:09:50.510Z,7.77
2022-10-13T14:13:01.173Z,8.73
2022-10-13T14:16:08.310Z,7.73
2022-10-13T14:19:15.036Z,8.17
2022-10-13T14:22:21.401Z,7.63
2022-10-13T14:25:28.095Z,11.43
2022-10-13T14:28:36.713Z,8.97
2022-10-13T14:31:43.508Z,7.83
2022-10-13T14:34:49.074Z,7.97
2022-10-13T14:37:55.588Z,8.37
2022-10-13T14:41:03.228Z,10.47
2022-10-13T14:44:14.378Z,9.27
2022-10-13T14:47:24.146Z,8.37
2022-10-13T14:50:30.933Z,6.87
2022-10-13T14:53:37.953Z,10.20
2022-10-13T14:56:44.797Z,7.63
2022-10-13T14:59:54.955Z,6.60
2022-10-13T15:03:06.571Z,8.43
2022-10-13T15:06:16.271Z,7.80
2022-10-13T15:09:29.099Z,7.77
2022-10-13T15:12:44.516Z,9.10
2022-10-13T15:15:54.004Z,8.63
2022-10-13T15:19:00.459Z,7.10
2022-10-13T15:22:09.108Z,7.50
2022-10-13T15:25:14.739Z,7.03
2022-10-13T15:28:21.792Z,8.27
2022-10-13T15:31:31.128Z,7.30
2022-10-13T15:34:37.642Z,8.70
2022-10-13T15:37:43.284Z,9.07
2022-10-13T15:40:50.439Z,10.73
2022-10-13T15:43:56.036Z,9.77
2022-10-13T15:47:08.274Z,9.17
2022-10-13T15:50:15.250Z,8.30
2022-10-13T15:53:21.906Z,9.17
2022-10-13T15:56:27.817Z,9.63
2022-10-13T15:59:34.512Z,12.90
2022-10-13T16:02:43.364Z,10.70
2022-10-13T16:05:50.248Z,9.77
2022-10-13T16:08:56.338Z,10.07
2022-10-13T16:12:03.287Z,8.50
2022-10-13T16:15:10.550Z,9.60
2022-10-13T16:18:19.873Z,12.47
2022-10-13T16:21:27.694Z,9.50
2022-10-13T16:24:34.353Z,9.90
2022-10-13T16:27:44.477Z,11.97
2022-10-13T16:30:51.245Z,10.70
2022-10-13T16:33:59.623Z,12.37
2022-10-13T16:37:07.111Z,13.13
2022-10-13T16:40:13.703Z,11.43
2022-10-13T16:43:20.103Z,12.23
2022-10-13T16:46:33.266Z,13.30
2022-10-13T16:49:42.514Z,12.50
2022-10-13T16:52:49.267Z,12.93
2022-10-13T16:55:55.708Z,12.63
2022-10-13T16:59:03.322Z,15.23
2022-10-13T17:02:10.075Z,11.97
2022-10-13T17:05:20.699Z,14.40
2022-10-13T17:08:27.344Z,11.10
2022-10-13T17:11:34.926Z,14.80
2022-10-13T17:14:44.656Z,13.10
2022-10-13T17:17:50.228Z,12.30
2022-10-13T17:21:01.099Z,13.50
2022-10-13T17:24:07.769Z,12.83
2022-10-13T17:27:14.587Z,12.80
2022-10-13T17:30:20.325Z,11.37
2022-10-13T17:33:26.817Z,12.37
2022-10-13T17:36:35.546Z,13.17
2022-10-13T17:39:48.069Z,12.37
2022-10-13T17:42:53.741Z,11.73
2022-10-13T17:46:34.349Z,16.00
2022-10-13T17:49:36.437Z,10.47
2022-10-13T17:52:45.996Z,13.20
2022-10-13T17:55:51.659Z,12.20
2022-10-13T17:58:59.748Z,14.40
2022-10-13T18:02:07.333Z,12.17
2022-10-13T18:05:14.039Z,12.53
2022-10-13T18:08:22.986Z,14.73
2022-10-13T18:11:29.808Z,15.93
2022-10-13T18:14:35.515Z,11.90
2022-10-13T18:17:42.628Z,11.70
2022-10-13T18:20:48.735Z,11.97
2022-10-13T18:23:59.079Z,14.87
2022-10-13T18:27:06.565Z,14.70
2022-10-13T18:30:21.363Z,12.57
2022-10-13T18:33:27.835Z,14.03
2022-10-13T18:36:35.975Z,15.17
2022-10-13T18:39:49.951Z,17.63
2022-10-13T18:42:56.357Z,17.77
2022-10-13T18:46:03.289Z,14.43
2022-10-13T18:49:12.527Z,13.17
2022-10-13T18:52:20.695Z,14.13
2022-10-13T18:55:30.013Z,13.60
2022-10-13T18:58:35.812Z,13.63
2022-10-13T19:01:43.083Z,13.63
2022-10-13T19:04:51.426Z,15.03
2022-10-13T19:07:58.205Z,13.13
2022-10-13T19:11:13.458Z,13.40
2022-10-13T19:14:20.075Z,15.80
2022-10-13T19:17:25.891Z,13.00
2022-10-13T19:20:32.725Z,11.33
2022-10-13T19:23:43.616Z,10.97
2022-10-13T19:27:01.205Z,12.90
2022-10-13T19:30:09.065Z,16.03
2022-10-13T19:33:16.542Z,12.43
2022-10-13T19:36:30.419Z,12.00
2022-10-13T19:39:39.970Z,16.63
2022-10-13T19:42:48.445Z,14.70
2022-10-13T19:45:59.634Z,13.20
2022-10-13T19:49:08.033Z,16.53
2022-10-13T19:52:15.029Z,15.93
2022-10-13T19:55:20.784Z,16.70
2022-10-13T19:58:30.203Z,18.47
2022-10-13T20:01:39.983Z,18.17
2022-10-13T20:04:52.230Z,16.13
2022-10-13T20:07:58.259Z,14.33
2022-10-13T20:11:09.112Z,15.93
2022-10-13T20:14:18.208Z,15.73
2022-10-13T20:17:24.724Z,15.50
2022-10-13T20:20:30.961Z,15.77
2022-10-13T20:23:38.058Z,19.60
2022-10-13T20:26:43.799Z,19.90
2022-10-13T20:29:54.007Z,17.60
2022-10-13T20:33:00.258Z,18.63
2022-10-13T20:36:11.955Z,20.43
2022-10-13T20:39:17.611Z,20.40
2022-10-13T20:42:24.066Z,19.47
2022-10-13T20:45:32.429Z,15.37
2022-10-13T20:49:08.658Z,16.83
2022-10-13T20:52:08.139Z,17.67
2022-10-13T20:55:14.669Z,16.60
2022-10-13T20:58:20.264Z,19.00
2022-10-13T21:01:29.765Z,15.10
2022-10-13T21:04:35.488Z,15.20
2022-10-13T21:07:42.471Z,16.97
2022-10-13T21:10:49.048Z,15.23
2022-10-13T21:13:58.130Z,13.87
2022-10-13T21:17:08.680Z,13.33
2022-10-13T21:20:15.137Z,15.97
2022-10-13T21:23:20.686Z,16.80
2022-10-13T21:26:31.081Z,14.87
2022-10-13T21:29:36.645Z,14.37
2022-10-13T21:32:45.960Z,15.40
2022-10-13T21:35:51.516Z,16.57
2022-10-13T21:39:03.612Z,14.20
2022-10-13T21:42:09.227Z,15.03
2022-10-13T21:45:15.715Z,14.53
2022-10-13T21:48:24.389Z,16.53
2022-10-13T21:51:32.601Z,14.43
2022-10-13T21:54:38.180Z,16.40
2022-10-13T21:57:44.630Z,18.20
2022-10-13T22:00:50.474Z,17.37
2022-10-13T22:04:03.846Z,16.37
2022-10-13T22:07:09.482Z,15.07
2022-10-13T22:10:16.119Z,15.37
2022-10-13T22:13:22.186Z,16.10
2022-10-13T22:16:31.345Z,16.20
2022-10-13T22:19:39.762Z,16.53
2022-10-13T22:22:46.485Z,18.37
2022-10-13T22:25:54.364Z,16.63
2022-10-13T22:29:03.626Z,19.23
2022-10-13T22:32:09.484Z,14.93
2022-10-13T22:35:18.820Z,18.83
2022-10-13T22:38:24.815Z,14.87
2022-10-13T22:41:31.799Z,18.07
2022-10-13T22:44:37.363Z,15.00
2022-10-13T22:47:43.848Z,14.67
2022-10-13T22:50:52.447Z,15.43
2022-10-13T22:54:00.225Z,17.20
2022-10-13T22:57:07.854Z,15.47
2022-10-13T23:00:15.332Z,16.60
2022-10-13T23:03:22.519Z,19.07
2022-10-13T23:06:34.820Z,18.27
2022-10-13T23:09:40.719Z,20.00
2022-10-13T23:12:47.250Z,20.40
2022-10-13T23:15:52.919Z,19.60
2022-10-13T23:19:04.331Z,21.40
2022-10-13T23:22:13.238Z,16.67
2022-10-13T23:25:19.774Z,19.93
2022-10-13T23:28:25.429Z,18.70
2022-10-13T23:31:32.154Z,20.43
2022-10-13T23:34:37.735Z,19.07
2022-10-13T23:37:47.115Z,22.40
2022-10-13T23:40:52.873Z,17.07
2022-10-13T23:43:59.983Z,19.80
2022-10-13T23:47:08.247Z,21.93
2022-10-13T23:50:14.736Z,22.77
2022-10-13T23:53:23.471Z,25.03
2022-10-13T23:56:30.221Z,23.43
2022-10-13T23:59:36.557Z,22.73
